Urumqi, China
Current Conditions -  °F | °C
As of 4:00 PM on Monday 20 Oct 2014 (Local Time) from ZWWW Reporting Station
Clear Clear  
Wind Chill: 66°   Ceiling: Unl
Heat Index: 66°   Visibility: 4mi
Dew Point: 30°   Wind: 7mph
Humidity: 26%   Direction: 330°NNW
Pressure: 30"   Gusts: NA
Location:  43.8°N, 87.58°E
Report Text: ZWWW 200800Z 33003MPS 300V010 7000 NSC 19/M01 Q1016 NOSIG
Loading
Personal Weather Stations






























Interactive Weather Map
Tropical Storm Tracking
New forecast layout! Learn more

10-Day Weather Forecast

Advertisements
Track Severe Weather on mobile